sensor_id;sensor_type;location;lat;lon;timestamp;pressure;altitude;pressure_sealevel;temperature;humidity
40502;BME280;29631;49.168;9.848;2023-07-29T00:01:44;96269.13;;;23.29;100.00
40502;BME280;29631;49.168;9.848;2023-07-29T00:04:09;96266.72;;;23.27;100.00
40502;BME280;29631;49.168;9.848;2023-07-29T00:06:36;96273.63;;;23.33;100.00
40502;BME280;29631;49.168;9.848;2023-07-29T00:09:02;96285.13;;;23.39;100.00
40502;BME280;29631;49.168;9.848;2023-07-29T00:11:28;96264.75;;;23.33;100.00
40502;BME280;29631;49.168;9.848;2023-07-29T00:13:54;96261.47;;;23.36;100.00
40502;BME280;29631;49.168;9.848;2023-07-29T00:16:20;96268.16;;;23.38;100.00
40502;BME280;29631;49.168;9.848;2023-07-29T00:18:48;96265.47;;;23.38;100.00
40502;BME280;29631;49.168;9.848;2023-07-29T00:21:14;96256.59;;;23.38;100.00
40502;BME280;29631;49.168;9.848;2023-07-29T00:23:40;96250.41;;;23.37;100.00
40502;BME280;29631;49.168;9.848;2023-07-29T00:26:05;96247.22;;;23.35;100.00
40502;BME280;29631;49.168;9.848;2023-07-29T00:28:31;96255.22;;;23.40;100.00
40502;BME280;29631;49.168;9.848;2023-07-29T00:30:57;96250.41;;;23.37;100.00
40502;BME280;29631;49.168;9.848;2023-07-29T00:33:23;96248.00;;;23.36;100.00
40502;BME280;29631;49.168;9.848;2023-07-29T00:35:49;96247.00;;;23.32;100.00
40502;BME280;29631;49.168;9.848;2023-07-29T00:38:14;96264.16;;;23.36;100.00
40502;BME280;29631;49.168;9.848;2023-07-29T00:40:40;96251.88;;;23.30;100.00
40502;BME280;29631;49.168;9.848;2023-07-29T00:43:06;96254.88;;;23.28;100.00
40502;BME280;29631;49.168;9.848;2023-07-29T00:45:32;96252.97;;;23.29;100.00
40502;BME280;29631;49.168;9.848;2023-07-29T00:48:02;96241.22;;;23.25;100.00
40502;BME280;29631;49.168;9.848;2023-07-29T00:50:30;96220.94;;;23.14;100.00
40502;BME280;29631;49.168;9.848;2023-07-29T00:52:56;96240.69;;;23.23;100.00
40502;BME280;29631;49.168;9.848;2023-07-29T00:55:23;96253.78;;;23.29;100.00
40502;BME280;29631;49.168;9.848;2023-07-29T00:57:48;96237.91;;;23.28;100.00
40502;BME280;29631;49.168;9.848;2023-07-29T01:00:20;96234.34;;;23.32;100.00
40502;BME280;29631;49.168;9.848;2023-07-29T01:02:46;96234.03;;;23.34;100.00
40502;BME280;29631;49.168;9.848;2023-07-29T01:05:14;96223.09;;;23.30;100.00
40502;BME280;29631;49.168;9.848;2023-07-29T01:10:46;96227.28;;;23.36;100.00
40502;BME280;29631;49.168;9.848;2023-07-29T01:13:48;96220.69;;;23.29;100.00
40502;BME280;29631;49.168;9.848;2023-07-29T01:16:25;96220.88;;;23.32;100.00
40502;BME280;29631;49.168;9.848;2023-07-29T01:18:54;96225.69;;;23.35;100.00
40502;BME280;29631;49.168;9.848;2023-07-29T01:21:22;96214.81;;;23.27;100.00
40502;BME280;29631;49.168;9.848;2023-07-29T01:23:47;96195.13;;;23.13;100.00
40502;BME280;29631;49.168;9.848;2023-07-29T01:26:17;96200.56;;;23.08;100.00
40502;BME280;29631;49.168;9.848;2023-07-29T01:28:43;96199.28;;;23.05;100.00
40502;BME280;29631;49.168;9.848;2023-07-29T01:31:37;96205.25;;;23.02;100.00
40502;BME280;29631;49.168;9.848;2023-07-29T01:34:17;96195.03;;;22.99;100.00
40502;BME280;29631;49.168;9.848;2023-07-29T01:36:45;96199.94;;;22.97;100.00
40502;BME280;29631;49.168;9.848;2023-07-29T01:39:12;96194.13;;;22.90;100.00
40502;BME280;29631;49.168;9.848;2023-07-29T01:41:40;96196.31;;;22.88;100.00
40502;BME280;29631;49.168;9.848;2023-07-29T01:44:07;96186.19;;;22.80;100.00
40502;BME280;29631;49.168;9.848;2023-07-29T01:46:37;96184.59;;;22.79;100.00
40502;BME280;29631;49.168;9.848;2023-07-29T01:49:02;96189.63;;;22.86;100.00
40502;BME280;29631;49.168;9.848;2023-07-29T01:51:28;96176.25;;;22.81;100.00
40502;BME280;29631;49.168;9.848;2023-07-29T01:53:54;96172.47;;;22.82;100.00
40502;BME280;29631;49.168;9.848;2023-07-29T01:56:21;96175.88;;;22.87;100.00
40502;BME280;29631;49.168;9.848;2023-07-29T01:58:47;96167.50;;;22.89;100.00
40502;BME280;29631;49.168;9.848;2023-07-29T02:01:12;96171.31;;;22.88;100.00
40502;BME280;29631;49.168;9.848;2023-07-29T02:03:38;96174.28;;;22.86;100.00
40502;BME280;29631;49.168;9.848;2023-07-29T02:06:04;96169.28;;;22.80;100.00
40502;BME280;29631;49.168;9.848;2023-07-29T02:08:30;96176.84;;;22.78;100.00
40502;BME280;29631;49.168;9.848;2023-07-29T02:10:56;96181.47;;;22.72;100.00
40502;BME280;29631;49.168;9.848;2023-07-29T02:13:21;96188.91;;;22.62;100.00
40502;BME280;29631;49.168;9.848;2023-07-29T02:15:47;96179.91;;;22.53;100.00
40502;BME280;29631;49.168;9.848;2023-07-29T02:18:13;96175.19;;;22.45;100.00
40502;BME280;29631;49.168;9.848;2023-07-29T02:20:39;96189.66;;;22.49;100.00
40502;BME280;29631;49.168;9.848;2023-07-29T02:23:04;96162.47;;;22.32;100.00
40502;BME280;29631;49.168;9.848;2023-07-29T02:25:30;96170.88;;;22.44;100.00
40502;BME280;29631;49.168;9.848;2023-07-29T02:27:56;96181.50;;;22.54;100.00
40502;BME280;29631;49.168;9.848;2023-07-29T02:30:22;96176.69;;;22.51;100.00
40502;BME280;29631;49.168;9.848;2023-07-29T02:32:47;96192.81;;;22.51;100.00
40502;BME280;29631;49.168;9.848;2023-07-29T02:35:13;96188.13;;;22.43;100.00
40502;BME280;29631;49.168;9.848;2023-07-29T02:37:39;96176.41;;;22.34;100.00
40502;BME280;29631;49.168;9.848;2023-07-29T02:40:05;96194.69;;;22.32;100.00
40502;BME280;29631;49.168;9.848;2023-07-29T02:42:32;96192.63;;;22.29;100.00
40502;BME280;29631;49.168;9.848;2023-07-29T02:44:57;96186.16;;;22.25;100.00
40502;BME280;29631;49.168;9.848;2023-07-29T02:47:24;96186.25;;;22.20;100.00
40502;BME280;29631;49.168;9.848;2023-07-29T02:49:50;96193.22;;;22.21;100.00
40502;BME280;29631;49.168;9.848;2023-07-29T02:52:15;96179.78;;;22.21;100.00
40502;BME280;29631;49.168;9.848;2023-07-29T02:54:41;96186.16;;;22.30;100.00
40502;BME280;29631;49.168;9.848;2023-07-29T02:57:07;96193.84;;;22.37;100.00
40502;BME280;29631;49.168;9.848;2023-07-29T02:59:33;96177.19;;;22.35;100.00
40502;BME280;29631;49.168;9.848;2023-07-29T03:01:58;96181.94;;;22.43;100.00
40502;BME280;29631;49.168;9.848;2023-07-29T03:04:24;96160.84;;;22.31;100.00
40502;BME280;29631;49.168;9.848;2023-07-29T03:06:50;96156.16;;;22.42;100.00
40502;BME280;29631;49.168;9.848;2023-07-29T03:09:15;96160.94;;;22.45;100.00
40502;BME280;29631;49.168;9.848;2023-07-29T03:11:41;96133.25;;;22.44;100.00
40502;BME280;29631;49.168;9.848;2023-07-29T03:14:07;96147.66;;;22.53;100.00
40502;BME280;29631;49.168;9.848;2023-07-29T03:16:32;96154.53;;;22.59;100.00
40502;BME280;29631;49.168;9.848;2023-07-29T03:18:58;96147.00;;;22.61;100.00
40502;BME280;29631;49.168;9.848;2023-07-29T03:21:25;96152.28;;;22.66;100.00
40502;BME280;29631;49.168;9.848;2023-07-29T03:23:51;96149.03;;;22.69;100.00
40502;BME280;29631;49.168;9.848;2023-07-29T03:26:17;96162.88;;;22.76;100.00
40502;BME280;29631;49.168;9.848;2023-07-29T03:28:43;96146.81;;;22.71;100.00
40502;BME280;29631;49.168;9.848;2023-07-29T03:31:10;96141.66;;;22.74;100.00
40502;BME280;29631;49.168;9.848;2023-07-29T03:33:36;96129.81;;;22.75;100.00
40502;BME280;29631;49.168;9.848;2023-07-29T03:36:02;96139.19;;;22.78;100.00
40502;BME280;29631;49.168;9.848;2023-07-29T03:38:27;96128.44;;;22.78;100.00
40502;BME280;29631;49.168;9.848;2023-07-29T03:40:53;96123.47;;;22.85;100.00
40502;BME280;29631;49.168;9.848;2023-07-29T03:43:19;96123.47;;;22.85;100.00
40502;BME280;29631;49.168;9.848;2023-07-29T03:45:45;96116.72;;;22.87;100.00
40502;BME280;29631;49.168;9.848;2023-07-29T03:48:11;96092.81;;;22.86;100.00
40502;BME280;29631;49.168;9.848;2023-07-29T03:50:37;96088.81;;;22.83;100.00
40502;BME280;29631;49.168;9.848;2023-07-29T03:53:03;96101.88;;;22.90;100.00
40502;BME280;29631;49.168;9.848;2023-07-29T03:55:30;96107.25;;;22.90;100.00
40502;BME280;29631;49.168;9.848;2023-07-29T03:58:00;96103.56;;;22.86;100.00
40502;BME280;29631;49.168;9.848;2023-07-29T04:00:26;96118.63;;;22.87;100.00
40502;BME280;29631;49.168;9.848;2023-07-29T04:02:52;96126.56;;;22.78;100.00
40502;BME280;29631;49.168;9.848;2023-07-29T04:05:19;96117.84;;;22.68;100.00
40502;BME280;29631;49.168;9.848;2023-07-29T04:07:44;96125.06;;;22.54;100.00
40502;BME280;29631;49.168;9.848;2023-07-29T04:10:11;96115.56;;;22.43;100.00
40502;BME280;29631;49.168;9.848;2023-07-29T04:12:36;96119.13;;;22.39;100.00
40502;BME280;29631;49.168;9.848;2023-07-29T04:15:03;96127.84;;;22.31;100.00
40502;BME280;29631;49.168;9.848;2023-07-29T04:17:29;96123.81;;;22.28;100.00
40502;BME280;29631;49.168;9.848;2023-07-29T04:19:54;96122.78;;;22.24;100.00
40502;BME280;29631;49.168;9.848;2023-07-29T04:22:20;96107.25;;;22.21;100.00
40502;BME280;29631;49.168;9.848;2023-07-29T04:24:46;96106.09;;;22.27;100.00
40502;BME280;29631;49.168;9.848;2023-07-29T04:27:12;96104.97;;;22.33;100.00
40502;BME280;29631;49.168;9.848;2023-07-29T04:29:38;96104.59;;;22.40;100.00
40502;BME280;29631;49.168;9.848;2023-07-29T04:32:04;96096.81;;;22.38;100.00
40502;BME280;29631;49.168;9.848;2023-07-29T04:34:30;96102.31;;;22.47;100.00
40502;BME280;29631;49.168;9.848;2023-07-29T04:36:56;96103.22;;;22.42;100.00
40502;BME280;29631;49.168;9.848;2023-07-29T04:39:22;96105.97;;;22.37;100.00
40502;BME280;29631;49.168;9.848;2023-07-29T04:41:48;96109.47;;;22.38;100.00
40502;BME280;29631;49.168;9.848;2023-07-29T04:44:13;96107.94;;;22.32;100.00
40502;BME280;29631;49.168;9.848;2023-07-29T04:46:39;96105.00;;;22.28;100.00
40502;BME280;29631;49.168;9.848;2023-07-29T04:49:05;96105.56;;;22.30;100.00
40502;BME280;29631;49.168;9.848;2023-07-29T04:51:31;96101.28;;;22.24;100.00
40502;BME280;29631;49.168;9.848;2023-07-29T04:54:00;96112.56;;;22.26;100.00
40502;BME280;29631;49.168;9.848;2023-07-29T04:56:26;96113.41;;;22.22;100.00
40502;BME280;29631;49.168;9.848;2023-07-29T04:58:52;96127.16;;;22.20;100.00
40502;BME280;29631;49.168;9.848;2023-07-29T05:01:18;96128.88;;;22.11;100.00
40502;BME280;29631;49.168;9.848;2023-07-29T05:03:44;96126.19;;;22.11;100.00
40502;BME280;29631;49.168;9.848;2023-07-29T05:06:10;96126.19;;;22.11;100.00
40502;BME280;29631;49.168;9.848;2023-07-29T05:08:36;96126.69;;;22.13;100.00
40502;BME280;29631;49.168;9.848;2023-07-29T05:11:02;96138.97;;;22.19;100.00
40502;BME280;29631;49.168;9.848;2023-07-29T05:13:27;96131.72;;;22.20;100.00
40502;BME280;29631;49.168;9.848;2023-07-29T05:15:53;96139.88;;;22.33;100.00
40502;BME280;29631;49.168;9.848;2023-07-29T05:18:19;96148.16;;;22.37;100.00
40502;BME280;29631;49.168;9.848;2023-07-29T05:20:47;96146.03;;;22.34;100.00
40502;BME280;29631;49.168;9.848;2023-07-29T05:23:13;96141.41;;;22.39;100.00
40502;BME280;29631;49.168;9.848;2023-07-29T05:25:38;96171.19;;;22.43;100.00
40502;BME280;29631;49.168;9.848;2023-07-29T05:28:04;96183.84;;;22.42;100.00
40502;BME280;29631;49.168;9.848;2023-07-29T05:30:32;96178.47;;;22.42;100.00
40502;BME280;29631;49.168;9.848;2023-07-29T05:32:59;96186.00;;;22.40;100.00
40502;BME280;29631;49.168;9.848;2023-07-29T05:35:25;96189.22;;;22.42;100.00
40502;BME280;29631;49.168;9.848;2023-07-29T05:37:51;96172.88;;;22.39;100.00
40502;BME280;29631;49.168;9.848;2023-07-29T05:40:17;96156.22;;;22.37;100.00
40502;BME280;29631;49.168;9.848;2023-07-29T05:42:43;96150.34;;;22.35;100.00
40502;BME280;29631;49.168;9.848;2023-07-29T05:45:10;96144.00;;;22.44;100.00
40502;BME280;29631;49.168;9.848;2023-07-29T05:47:36;96117.97;;;22.45;100.00
40502;BME280;29631;49.168;9.848;2023-07-29T05:50:03;96115.75;;;22.47;100.00
40502;BME280;29631;49.168;9.848;2023-07-29T05:52:33;96123.03;;;22.46;100.00
40502;BME280;29631;49.168;9.848;2023-07-29T05:54:59;96127.31;;;22.47;100.00
40502;BME280;29631;49.168;9.848;2023-07-29T05:57:25;96126.81;;;22.45;100.00
40502;BME280;29631;49.168;9.848;2023-07-29T05:59:51;96130.88;;;22.43;100.00
40502;BME280;29631;49.168;9.848;2023-07-29T06:02:17;96125.50;;;22.43;100.00
40502;BME280;29631;49.168;9.848;2023-07-29T06:04:43;96134.09;;;22.45;100.00
40502;BME280;29631;49.168;9.848;2023-07-29T06:07:08;96142.34;;;22.48;100.00
40502;BME280;29631;49.168;9.848;2023-07-29T06:09:34;96155.16;;;22.56;100.00
40502;BME280;29631;49.168;9.848;2023-07-29T06:12:00;96154.47;;;22.64;100.00
40502;BME280;29631;49.168;9.848;2023-07-29T06:14:26;96169.63;;;22.73;100.00
40502;BME280;29631;49.168;9.848;2023-07-29T06:16:52;96165.50;;;22.81;100.00
40502;BME280;29631;49.168;9.848;2023-07-29T06:19:19;96173.09;;;22.92;100.00
40502;BME280;29631;49.168;9.848;2023-07-29T06:21:45;96160.47;;;22.93;100.00
40502;BME280;29631;49.168;9.848;2023-07-29T06:24:11;96155.50;;;23.00;100.00
40502;BME280;29631;49.168;9.848;2023-07-29T06:26:37;96155.66;;;23.08;100.00
40502;BME280;29631;49.168;9.848;2023-07-29T06:29:03;96153.97;;;23.12;100.00
40502;BME280;29631;49.168;9.848;2023-07-29T06:31:28;96139.63;;;23.17;100.00
40502;BME280;29631;49.168;9.848;2023-07-29T06:33:55;96130.97;;;23.20;100.00
40502;BME280;29631;49.168;9.848;2023-07-29T06:36:20;96124.41;;;23.26;100.00
40502;BME280;29631;49.168;9.848;2023-07-29T06:38:46;96125.72;;;23.28;100.00
40502;BME280;29631;49.168;9.848;2023-07-29T06:41:12;96134.97;;;23.36;100.00
40502;BME280;29631;49.168;9.848;2023-07-29T06:43:38;96123.69;;;23.34;100.00
40502;BME280;29631;49.168;9.848;2023-07-29T06:46:03;96126.81;;;23.40;100.00
40502;BME280;29631;49.168;9.848;2023-07-29T06:48:29;96140.66;;;23.47;100.00
40502;BME280;29631;49.168;9.848;2023-07-29T06:50:55;96143.34;;;23.47;100.00
40502;BME280;29631;49.168;9.848;2023-07-29T06:53:26;96135.50;;;23.51;100.00
40502;BME280;29631;49.168;9.848;2023-07-29T06:55:52;96142.09;;;23.58;100.00
40502;BME280;29631;49.168;9.848;2023-07-29T06:58:18;96147.69;;;23.62;100.00
40502;BME280;29631;49.168;9.848;2023-07-29T07:00:43;96146.34;;;23.59;100.00
40502;BME280;29631;49.168;9.848;2023-07-29T07:03:09;96154.63;;;23.63;100.00
40502;BME280;29631;49.168;9.848;2023-07-29T07:05:35;96142.56;;;23.60;100.00
40502;BME280;29631;49.168;9.848;2023-07-29T07:08:01;96141.47;;;23.61;100.00
40502;BME280;29631;49.168;9.848;2023-07-29T07:10:26;96147.38;;;23.63;100.00
40502;BME280;29631;49.168;9.848;2023-07-29T07:12:52;96150.97;;;23.72;100.00
40502;BME280;29631;49.168;9.848;2023-07-29T07:15:18;96144.00;;;23.71;100.00
40502;BME280;29631;49.168;9.848;2023-07-29T07:17:44;96151.38;;;23.79;100.00
40502;BME280;29631;49.168;9.848;2023-07-29T07:20:10;96154.28;;;23.83;100.00
40502;BME280;29631;49.168;9.848;2023-07-29T07:22:37;96150.78;;;23.82;100.00
40502;BME280;29631;49.168;9.848;2023-07-29T07:25:03;96144.00;;;23.85;100.00
40502;BME280;29631;49.168;9.848;2023-07-29T07:27:29;96147.22;;;23.87;100.00
40502;BME280;29631;49.168;9.848;2023-07-29T07:29:55;96129.44;;;23.86;100.00
40502;BME280;29631;49.168;9.848;2023-07-29T07:32:20;96141.00;;;23.86;100.00
40502;BME280;29631;49.168;9.848;2023-07-29T07:34:46;96143.91;;;23.90;100.00
40502;BME280;29631;49.168;9.848;2023-07-29T07:37:12;96150.09;;;23.90;100.00
40502;BME280;29631;49.168;9.848;2023-07-29T07:39:37;96146.31;;;23.91;100.00
40502;BME280;29631;49.168;9.848;2023-07-29T07:42:03;96141.19;;;23.90;100.00
40502;BME280;29631;49.168;9.848;2023-07-29T07:44:29;96141.72;;;23.92;100.00
40502;BME280;29631;49.168;9.848;2023-07-29T07:46:55;96152.38;;;23.97;100.00
40502;BME280;29631;49.168;9.848;2023-07-29T07:49:21;96162.38;;;23.96;100.00
40502;BME280;29631;49.168;9.848;2023-07-29T07:51:47;96155.97;;;23.92;100.00
40502;BME280;29631;49.168;9.848;2023-07-29T07:54:13;96149.78;;;23.92;100.00
40502;BME280;29631;49.168;9.848;2023-07-29T07:56:39;96165.84;;;23.97;100.00
40502;BME280;29631;49.168;9.848;2023-07-29T07:59:04;96162.94;;;23.93;100.00
40502;BME280;29631;49.168;9.848;2023-07-29T08:01:40;96154.97;;;23.88;100.00
40502;BME280;29631;49.168;9.848;2023-07-29T08:04:06;96162.75;;;23.90;100.00
40502;BME280;29631;49.168;9.848;2023-07-29T08:06:32;96161.16;;;23.89;100.00
40502;BME280;29631;49.168;9.848;2023-07-29T08:08:58;96163.38;;;23.87;100.00
40502;BME280;29631;49.168;9.848;2023-07-29T08:11:25;96154.00;;;23.84;100.00
40502;BME280;29631;49.168;9.848;2023-07-29T08:13:51;96160.16;;;23.85;100.00
40502;BME280;29631;49.168;9.848;2023-07-29T08:16:16;96171.84;;;23.80;100.00
40502;BME280;29631;49.168;9.848;2023-07-29T08:18:42;96175.34;;;23.81;100.00
40502;BME280;29631;49.168;9.848;2023-07-29T08:21:08;96191.00;;;23.79;100.00
40502;BME280;29631;49.168;9.848;2023-07-29T08:23:35;96174.72;;;23.70;100.00
40502;BME280;29631;49.168;9.848;2023-07-29T08:26:04;96176.38;;;23.66;100.00
40502;BME280;29631;49.168;9.848;2023-07-29T08:28:33;96171.59;;;23.63;100.00
40502;BME280;29631;49.168;9.848;2023-07-29T08:30:59;96165.91;;;23.65;100.00
40502;BME280;29631;49.168;9.848;2023-07-29T08:33:27;96168.31;;;23.66;100.00
40502;BME280;29631;49.168;9.848;2023-07-29T08:35:53;96174.94;;;23.74;100.00
40502;BME280;29631;49.168;9.848;2023-07-29T08:38:20;96171.34;;;23.78;100.00
40502;BME280;29631;49.168;9.848;2023-07-29T08:44:22;96170.75;;;23.81;100.00
40502;BME280;29631;49.168;9.848;2023-07-29T08:46:49;96171.53;;;23.82;100.00
40502;BME280;29631;49.168;9.848;2023-07-29T08:49:18;96184.72;;;23.83;100.00
40502;BME280;29631;49.168;9.848;2023-07-29T08:51:49;96172.34;;;23.82;100.00
40502;BME280;29631;49.168;9.848;2023-07-29T08:54:15;96170.56;;;23.91;100.00
40502;BME280;29631;49.168;9.848;2023-07-29T08:56:42;96165.84;;;23.97;100.00
40502;BME280;29631;49.168;9.848;2023-07-29T08:59:09;96168.94;;;24.04;100.00
40502;BME280;29631;49.168;9.848;2023-07-29T09:01:39;96174.53;;;24.07;100.00
40502;BME280;29631;49.168;9.848;2023-07-29T09:04:05;96177.09;;;24.12;100.00
40502;BME280;29631;49.168;9.848;2023-07-29T09:06:32;96189.38;;;24.18;100.00
40502;BME280;29631;49.168;9.848;2023-07-29T09:08:59;96197.47;;;24.18;100.00
40502;BME280;29631;49.168;9.848;2023-07-29T09:11:25;96197.97;;;24.20;100.00
40502;BME280;29631;49.168;9.848;2023-07-29T09:13:51;96188.91;;;24.16;100.00
40502;BME280;29631;49.168;9.848;2023-07-29T09:16:20;96205.06;;;24.16;100.00
40502;BME280;29631;49.168;9.848;2023-07-29T09:18:48;96199.69;;;24.16;100.00
40502;BME280;29631;49.168;9.848;2023-07-29T09:21:24;96197.47;;;24.18;100.00
40502;BME280;29631;49.168;9.848;2023-07-29T09:23:52;96209.72;;;24.24;100.00
40502;BME280;29631;49.168;9.848;2023-07-29T09:26:27;96195.16;;;24.25;100.00
40502;BME280;29631;49.168;9.848;2023-07-29T09:28:55;96199.75;;;24.24;100.00
40502;BME280;29631;49.168;9.848;2023-07-29T09:31:24;96199.44;;;24.26;100.00
40502;BME280;29631;49.168;9.848;2023-07-29T09:33:55;96192.25;;;24.35;100.00
40502;BME280;29631;49.168;9.848;2023-07-29T09:36:22;96183.56;;;24.38;100.00
40502;BME280;29631;49.168;9.848;2023-07-29T09:38:50;96189.25;;;24.50;100.00
40502;BME280;29631;49.168;9.848;2023-07-29T09:41:17;96188.53;;;24.58;100.00
40502;BME280;29631;49.168;9.848;2023-07-29T09:43:43;96177.03;;;24.66;100.00
40502;BME280;29631;49.168;9.848;2023-07-29T09:46:09;96176.78;;;24.76;100.00
40502;BME280;29631;49.168;9.848;2023-07-29T09:48:36;96176.13;;;24.92;100.00
40502;BME280;29631;49.168;9.848;2023-07-29T09:51:13;96173.38;;;25.05;100.00
40502;BME280;29631;49.168;9.848;2023-07-29T09:53:46;96180.16;;;25.16;100.00
40502;BME280;29631;49.168;9.848;2023-07-29T09:56:13;96175.25;;;25.18;100.00
40502;BME280;29631;49.168;9.848;2023-07-29T09:58:39;96189.59;;;25.27;100.00
40502;BME280;29631;49.168;9.848;2023-07-29T10:01:06;96198.81;;;25.26;100.00
40502;BME280;29631;49.168;9.848;2023-07-29T10:03:34;96193.50;;;25.21;100.00
40502;BME280;29631;49.168;9.848;2023-07-29T10:06:03;96187.47;;;25.16;100.00
40502;BME280;29631;49.168;9.848;2023-07-29T10:08:33;96189.22;;;25.20;100.00
40502;BME280;29631;49.168;9.848;2023-07-29T10:11:02;96176.41;;;25.26;100.00
40502;BME280;29631;49.168;9.848;2023-07-29T10:13:28;96179.03;;;25.39;100.00
40502;BME280;29631;49.168;9.848;2023-07-29T10:15:54;96171.25;;;25.46;100.00
40502;BME280;29631;49.168;9.848;2023-07-29T10:18:22;96162.09;;;25.56;100.00
40502;BME280;29631;49.168;9.848;2023-07-29T10:20:51;96157.19;;;25.58;100.00
40502;BME280;29631;49.168;9.848;2023-07-29T10:23:18;96161.81;;;25.57;100.00
40502;BME280;29631;49.168;9.848;2023-07-29T10:26:06;96158.63;;;25.55;100.00
40502;BME280;29631;49.168;9.848;2023-07-29T10:28:40;96166.84;;;25.50;100.00
40502;BME280;29631;49.168;9.848;2023-07-29T10:31:06;96193.88;;;25.50;100.00
40502;BME280;29631;49.168;9.848;2023-07-29T10:33:34;96194.47;;;25.47;100.00
40502;BME280;29631;49.168;9.848;2023-07-29T10:36:00;96219.88;;;25.46;100.00
40502;BME280;29631;49.168;9.848;2023-07-29T10:38:26;96220.13;;;25.36;100.00
40502;BME280;29631;49.168;9.848;2023-07-29T10:40:55;96208.19;;;25.29;100.00
40502;BME280;29631;49.168;9.848;2023-07-29T10:43:32;96204.31;;;25.21;100.00
40502;BME280;29631;49.168;9.848;2023-07-29T10:46:18;96205.13;;;25.22;100.00
40502;BME280;29631;49.168;9.848;2023-07-29T10:48:54;96203.03;;;25.19;100.00
40502;BME280;29631;49.168;9.848;2023-07-29T10:51:37;96207.00;;;25.21;100.00
40502;BME280;29631;49.168;9.848;2023-07-29T10:54:14;96206.53;;;25.19;100.00
40502;BME280;29631;49.168;9.848;2023-07-29T10:56:42;96202.25;;;25.18;100.00
40502;BME280;29631;49.168;9.848;2023-07-29T11:01:40;96188.88;;;25.13;100.00
40502;BME280;29631;49.168;9.848;2023-07-29T11:12:51;96185.97;;;25.62;100.00
40502;BME280;29631;49.168;9.848;2023-07-29T11:15:28;96191.72;;;25.69;100.00
40502;BME280;29631;49.168;9.848;2023-07-29T11:17:58;96183.88;;;25.81;100.00
40502;BME280;29631;49.168;9.848;2023-07-29T11:22:58;96185.28;;;25.78;100.00
40502;BME280;29631;49.168;9.848;2023-07-29T11:25:28;96199.91;;;25.77;100.00
40502;BME280;29631;49.168;9.848;2023-07-29T11:27:57;96201.81;;;25.77;100.00
40502;BME280;29631;49.168;9.848;2023-07-29T11:30:23;96204.06;;;25.83;100.00
40502;BME280;29631;49.168;9.848;2023-07-29T11:32:53;96185.47;;;25.82;100.00
40502;BME280;29631;49.168;9.848;2023-07-29T11:35:20;96187.41;;;25.90;100.00
40502;BME280;29631;49.168;9.848;2023-07-29T11:37:51;96187.13;;;26.00;100.00
40502;BME280;29631;49.168;9.848;2023-07-29T11:40:22;96195.25;;;26.08;100.00
40502;BME280;29631;49.168;9.848;2023-07-29T11:42:50;96186.38;;;26.16;100.00
40502;BME280;29631;49.168;9.848;2023-07-29T11:45:17;96200.25;;;26.32;100.00
40502;BME280;29631;49.168;9.848;2023-07-29T11:47:43;96198.03;;;26.34;100.00
40502;BME280;29631;49.168;9.848;2023-07-29T11:50:11;96190.41;;;26.36;100.00
40502;BME280;29631;49.168;9.848;2023-07-29T11:52:42;96181.16;;;26.37;100.00
40502;BME280;29631;49.168;9.848;2023-07-29T11:55:08;96185.78;;;26.36;100.00
40502;BME280;29631;49.168;9.848;2023-07-29T11:57:36;96192.69;;;26.42;100.00
40502;BME280;29631;49.168;9.848;2023-07-29T12:00:09;96186.81;;;26.48;100.00
40502;BME280;29631;49.168;9.848;2023-07-29T12:02:40;96191.41;;;26.56;100.00
40502;BME280;29631;49.168;9.848;2023-07-29T12:05:08;96197.81;;;26.60;100.00
40502;BME280;29631;49.168;9.848;2023-07-29T12:07:34;96183.97;;;26.62;100.00
40502;BME280;29631;49.168;9.848;2023-07-29T12:10:02;96184.91;;;26.66;100.00
40502;BME280;29631;49.168;9.848;2023-07-29T12:12:29;96192.06;;;26.70;100.00
40502;BME280;29631;49.168;9.848;2023-07-29T12:14:56;96162.97;;;26.67;100.00
40502;BME280;29631;49.168;9.848;2023-07-29T12:17:22;96171.25;;;26.71;100.00
40502;BME280;29631;49.168;9.848;2023-07-29T12:19:48;96168.69;;;26.74;100.00
40502;BME280;29631;49.168;9.848;2023-07-29T12:22:19;96171.84;;;26.76;100.00
40502;BME280;29631;49.168;9.848;2023-07-29T12:24:45;96172.84;;;26.80;100.00
40502;BME280;29631;49.168;9.848;2023-07-29T12:27:14;96173.44;;;26.86;100.00
40502;BME280;29631;49.168;9.848;2023-07-29T12:29:43;96168.84;;;26.86;100.00
40502;BME280;29631;49.168;9.848;2023-07-29T12:32:12;96157.38;;;26.89;100.00
40502;BME280;29631;49.168;9.848;2023-07-29T12:34:39;96168.69;;;26.91;100.00
40502;BME280;29631;49.168;9.848;2023-07-29T12:37:06;96159.91;;;26.94;100.00
40502;BME280;29631;49.168;9.848;2023-07-29T12:39:35;96150.69;;;26.95;100.00
40502;BME280;29631;49.168;9.848;2023-07-29T12:42:02;96155.31;;;27.03;100.00
40502;BME280;29631;49.168;9.848;2023-07-29T12:44:34;96145.91;;;27.09;100.00
40502;BME280;29631;49.168;9.848;2023-07-29T12:47:05;96132.22;;;27.14;100.00
40502;BME280;29631;49.168;9.848;2023-07-29T12:49:32;96137.31;;;27.16;100.00
40502;BME280;29631;49.168;9.848;2023-07-29T12:52:01;96149.72;;;27.25;100.00
40502;BME280;29631;49.168;9.848;2023-07-29T12:54:26;96133.94;;;27.27;100.00
40502;BME280;29631;49.168;9.848;2023-07-29T12:56:52;96133.59;;;27.37;100.00
40502;BME280;29631;49.168;9.848;2023-07-29T12:59:18;96128.94;;;27.46;100.00
40502;BME280;29631;49.168;9.848;2023-07-29T13:01:44;96129.09;;;27.49;100.00
40502;BME280;29631;49.168;9.848;2023-07-29T13:04:11;96133.88;;;27.52;100.00
40502;BME280;29631;49.168;9.848;2023-07-29T13:06:37;96131.50;;;27.51;100.00
40502;BME280;29631;49.168;9.848;2023-07-29T13:09:03;96136.25;;;27.54;100.00
40502;BME280;29631;49.168;9.848;2023-07-29T13:11:31;96137.84;;;27.55;100.00